CYAW/YAW METAR and TAF weather

Enter ICAO airport designator
Station Type Date Time Source
CYAW METAR 2019/06/24 23:00 UTC NOAA

CYAW 242300Z 13004KT 15SM FEW080 BKN230 17/09 A2983 RMK AC1CS5 DA670FT SLP102


Station Type Date Time Source
CYAW Decoded METAR 2019/06/24 23:00 UTC NOAA

Shearwater, N. S., Canada (CYAW) 44-38N 063-30W 51M
Jun 24, 2019 - 07:00 PM EDT / 2019.06.24 2300 UTC
Wind: from the SE (130 degrees) at 5 MPH (4 KT):0
Visibility: 15 mile(s):0
Sky conditions: mostly cloudy
Temperature: 62 F (17 C)
Dew Point: 48 F (9 C)
Relative Humidity: 59%
Pressure (altimeter): 29.83 in. Hg (1010 hPa)
ob: CYAW 242300Z 13004KT 15SM FEW080 BKN230 17/09 A2983 RMK AC1CS5 DA670FT SLP102
cycle: 23

Station Type Date Time Source
CYAW TAF 2019/06/24 18:35 UTC NOAA

TAF CYAW 241730Z 2418/2506 30010G20KT P6SM SCT050 BKN250
FM242300 30008KT P6SM BKN050
BECMG 2500/2502 VRB03KT
RMK NXT FCST BY 250000Z

Example: see airport list